Time;durP1;ratioP1;P1;durP2;ratioP2;P2;SDS_P1;SDS_P2;PMS_P1;PMS_P2;Temp;Humidity;BMP_temperature;BMP_pressure;BME280_temperature;BME280_humidity;BME280_pressure;Samples;Min_cycle;Max_cycle;Signal;HPM_P1;HPM_P2
2022/12/04 00:02:08;;;;;;;95.90;44.00;;;2.60;99.90;;;;;;10321110;28;20675;-81
2022/12/04 00:07:08;;;;;;;92.13;42.13;;;2.60;99.90;;;;;;10320241;28;20050;-81
2022/12/04 00:12:09;;;;;;;83.70;40.20;;;2.60;99.90;;;;;;10320379;28;20065;-81
2022/12/04 00:17:09;;;;;;;97.77;44.43;;;2.60;99.90;;;;;;10320232;28;20077;-82
2022/12/04 00:22:10;;;;;;;93.43;43.57;;;2.70;99.90;;;;;;10320200;28;20042;-81
2022/12/04 00:27:10;;;;;;;101.23;46.13;;;2.70;99.90;;;;;;10320221;28;20393;-82
2022/12/04 00:32:11;;;;;;;96.97;43.63;;;2.70;99.90;;;;;;10319861;28;20065;-82
2022/12/04 00:37:11;;;;;;;96.77;45.97;;;2.70;99.90;;;;;;10317775;28;20050;-82
2022/12/04 00:42:12;;;;;;;93.63;42.13;;;2.60;99.90;;;;;;10316114;28;20041;-81
2022/12/04 00:47:13;;;;;;;93.47;42.30;;;2.70;99.90;;;;;;10319476;28;20117;-82
2022/12/04 00:52:13;;;;;;;81.47;40.20;;;2.70;99.90;;;;;;10319452;28;20040;-82
2022/12/04 00:57:14;;;;;;;88.30;41.10;;;2.70;99.90;;;;;;10318518;28;20054;-82
2022/12/04 01:02:14;;;;;;;92.30;41.97;;;2.70;99.90;;;;;;10318745;28;20042;-82
2022/12/04 01:07:15;;;;;;;78.97;37.67;;;2.70;99.90;;;;;;10319031;28;20026;-82
2022/12/04 01:12:15;;;;;;;84.27;39.37;;;2.70;99.90;;;;;;10305411;28;20037;-81
2022/12/04 01:17:16;;;;;;;87.60;39.37;;;2.80;99.90;;;;;;10319029;28;20475;-81
2022/12/04 01:22:16;;;;;;;79.67;39.67;;;2.80;99.90;;;;;;10317399;28;20030;-81
2022/12/04 01:27:17;;;;;;;82.43;39.93;;;2.80;99.90;;;;;;10318671;28;20092;-81
2022/12/04 01:32:17;;;;;;;74.13;34.67;;;2.80;99.90;;;;;;10318578;28;20030;-82
2022/12/04 01:37:18;;;;;;;73.93;34.43;;;2.80;99.90;;;;;;10318651;28;20052;-82
2022/12/04 01:42:18;;;;;;;68.13;32.83;;;2.80;99.90;;;;;;10299131;28;20561;-81
2022/12/04 01:47:19;;;;;;;65.00;31.40;;;2.70;99.90;;;;;;10318207;28;20038;-81
2022/12/04 01:52:25;;;;;;;67.17;31.17;;;2.70;99.90;;;;;;10318485;28;20038;-81
2022/12/04 01:57:28;;;;;;;74.35;33.63;;;2.70;99.90;;;;;;10318956;28;20809;-82
2022/12/04 02:02:32;;;;;;;70.87;32.40;;;2.60;99.90;;;;;;10326443;28;20112;-82
2022/12/04 02:07:33;;;;;;;71.33;33.83;;;2.60;99.90;;;;;;10326124;28;20041;-81
2022/12/04 02:13:01;;;;;;;74.93;35.83;;;2.50;99.90;;;;;;10325244;28;20672;-81
2022/12/04 02:18:16;;;;;;;69.50;31.43;;;2.40;99.90;;;;;;10315131;28;20046;-81
2022/12/04 02:23:28;;;;;;;79.73;35.30;;;2.30;99.90;;;;;;10325200;28;20041;-81
2022/12/04 02:28:48;;;;;;;71.67;33.17;;;2.30;99.90;;;;;;10325462;28;20026;-81
2022/12/04 02:34:30;;;;;;;62.73;30.27;;;2.30;99.90;;;;;;10325212;28;20066;-81
2022/12/04 02:39:40;;;;;;;65.27;32.13;;;2.30;99.90;;;;;;10274227;28;20871;-81
2022/12/04 02:44:52;;;;;;;68.20;31.53;;;2.40;99.90;;;;;;10324896;28;20069;-81
2022/12/04 02:50:00;;;;;;;61.27;29.57;;;2.40;99.90;;;;;;10323072;28;20030;-81
2022/12/04 02:55:09;;;;;;;59.70;28.07;;;2.40;99.90;;;;;;10324024;28;20767;-81
2022/12/04 03:00:10;;;;;;;62.20;28.43;;;2.40;99.90;;;;;;10310213;28;20137;-81
2022/12/04 03:05:16;;;;;;;72.80;33.27;;;2.40;99.90;;;;;;10323856;28;20802;-81
2022/12/04 03:10:22;;;;;;;75.63;34.65;;;2.30;99.90;;;;;;10322766;28;20046;-82
2022/12/04 03:15:29;;;;;;;71.33;34.10;;;2.30;99.90;;;;;;10323453;28;20464;-81
2022/12/04 03:20:33;;;;;;;70.20;32.93;;;2.20;99.90;;;;;;10323693;28;20509;-82
2022/12/04 03:25:42;;;;;;;67.97;31.73;;;2.20;99.90;;;;;;10322493;28;20429;-82
2022/12/04 03:30:55;;;;;;;65.87;31.40;;;2.20;99.90;;;;;;10322501;28;20030;-81
2022/12/04 03:36:05;;;;;;;65.90;30.10;;;2.10;99.90;;;;;;10321139;28;20200;-81
2022/12/04 03:41:31;;;;;;;67.73;30.47;;;2.00;99.90;;;;;;10321533;28;20038;-82
2022/12/04 03:46:38;;;;;;;;;;;1.90;99.90;;;;;;10322340;28;20037;-81
2022/12/04 03:51:57;;;;;;;69.47;31.33;;;1.80;99.90;;;;;;10322995;28;19917;-82
2022/12/04 03:57:21;;;;;;;77.13;32.20;;;1.70;99.90;;;;;;10321486;28;20053;-82
2022/12/04 04:02:27;;;;;;;70.30;30.97;;;1.70;99.90;;;;;;10320646;28;20430;-81
2022/12/04 04:07:36;;;;;;;68.93;29.43;;;1.60;99.90;;;;;;10321557;28;20027;-81
2022/12/04 04:12:43;;;;;;;72.90;31.00;;;1.70;99.90;;;;;;10320924;28;20026;-81
2022/12/04 04:28:39;;;;;;;71.07;29.77;;;1.70;99.90;;;;;;10312980;28;20511;-81
2022/12/04 04:33:58;;;;;;;69.53;26.83;;;1.70;99.90;;;;;;10320008;28;20030;-82
2022/12/04 04:39:05;;;;;;;64.07;26.50;;;1.70;99.90;;;;;;10347681;23;20062;-81
2022/12/04 04:44:16;;;;;;;55.70;25.00;;;1.70;99.90;;;;;;10344983;28;20037;-84
2022/12/04 04:49:21;;;;;;;61.63;26.73;;;1.70;99.90;;;;;;10339856;28;20041;-81
2022/12/04 04:54:22;;;;;;;68.87;27.70;;;1.70;99.90;;;;;;10353341;28;20133;-81
2022/12/04 04:59:22;;;;;;;60.07;24.67;;;1.70;99.90;;;;;;10342771;28;20042;-82
2022/12/04 05:04:23;;;;;;;59.33;24.93;;;1.60;99.90;;;;;;10342378;28;20041;-81
2022/12/04 05:09:23;;;;;;;58.00;26.47;;;1.70;99.90;;;;;;10343765;28;20040;-80
2022/12/04 05:14:24;;;;;;;56.57;24.37;;;1.70;99.90;;;;;;10334908;28;20073;-80
2022/12/04 05:24:44;;;;;;;60.00;26.27;;;1.70;99.90;;;;;;10330568;28;20144;-82
2022/12/04 05:29:44;;;;;;;52.90;23.70;;;1.70;99.90;;;;;;10330085;28;20397;-82
2022/12/04 05:34:49;;;;;;;56.53;23.90;;;1.70;99.90;;;;;;10343352;28;20036;-82
2022/12/04 05:39:50;;;;;;;60.57;26.43;;;1.70;99.90;;;;;;10367554;28;20058;-81
2022/12/04 05:44:50;;;;;;;61.43;25.20;;;1.70;99.90;;;;;;10363154;28;20033;-82
2022/12/04 05:49:51;;;;;;;53.97;24.27;;;1.70;99.90;;;;;;10354174;28;20109;-82
2022/12/04 05:54:51;;;;;;;81.80;36.80;;;1.70;99.90;;;;;;10367175;28;20032;-82
2022/12/04 05:59:52;;;;;;;55.03;25.83;;;1.70;99.90;;;;;;10358542;28;20557;-81
2022/12/04 06:04:52;;;;;;;65.23;28.60;;;1.70;99.90;;;;;;10358690;28;20033;-81
2022/12/04 06:09:54;;;;;;;66.03;27.70;;;1.70;99.90;;;;;;10367264;28;20125;-81
2022/12/04 06:14:54;;;;;;;58.73;26.00;;;1.70;99.90;;;;;;10350407;28;20478;-82
2022/12/04 06:19:55;;;;;;;63.37;28.70;;;1.70;99.90;;;;;;10366365;28;20037;-82
2022/12/04 06:24:56;;;;;;;123.27;51.90;;;1.70;99.90;;;;;;10356064;28;20116;-82
2022/12/04 06:29:56;;;;;;;82.00;32.93;;;1.70;99.90;;;;;;10326905;28;20437;-83
2022/12/04 06:34:57;;;;;;;90.77;40.23;;;1.70;99.90;;;;;;10334819;28;20432;-82
2022/12/04 06:39:57;;;;;;;197.07;93.10;;;1.70;99.90;;;;;;10343926;28;20052;-81
2022/12/04 06:44:58;;;;;;;223.10;104.50;;;1.70;99.90;;;;;;10350717;28;20566;-80
2022/12/04 06:49:58;;;;;;;269.43;122.93;;;1.80;99.90;;;;;;10352040;28;20068;-82
2022/12/04 06:54:59;;;;;;;94.07;44.40;;;1.80;99.90;;;;;;10365523;28;20072;-80
2022/12/04 07:00:00;;;;;;;77.37;32.30;;;1.90;99.90;;;;;;10351989;28;20069;-81
2022/12/04 07:05:00;;;;;;;82.17;35.13;;;1.90;99.90;;;;;;10343554;28;20467;-81
2022/12/04 07:10:03;;;;;;;93.03;41.13;;;1.90;99.90;;;;;;10342722;28;20034;-83
2022/12/04 07:15:04;;;;;;;174.13;86.43;;;2.00;99.90;;;;;;10353532;28;20037;-83
2022/12/04 07:20:05;;;;;;;146.20;70.87;;;2.00;99.90;;;;;;10343467;28;20045;-83
2022/12/04 07:25:06;;;;;;;169.83;77.07;;;2.00;99.90;;;;;;10342433;28;20406;-83
2022/12/04 07:30:07;;;;;;;192.97;78.50;;;2.00;99.90;;;;;;10340951;28;20034;-82
2022/12/04 07:35:08;;;;;;;200.23;89.23;;;2.10;99.90;;;;;;10326304;28;20046;-83
2022/12/04 07:40:09;;;;;;;182.57;87.23;;;2.20;99.90;;;;;;10345983;28;20064;-83
2022/12/04 07:45:09;;;;;;;134.40;63.67;;;2.20;99.90;;;;;;10341202;28;20038;-85
2022/12/04 07:50:10;;;;;;;80.90;34.83;;;2.20;99.90;;;;;;10312682;28;20036;-84
2022/12/04 07:55:10;;;;;;;111.47;45.73;;;2.10;99.90;;;;;;10324749;28;20042;-81
2022/12/04 08:00:11;;;;;;;75.03;32.83;;;2.10;99.90;;;;;;10335657;28;20140;-82
2022/12/04 08:05:12;;;;;;;82.77;35.87;;;2.10;99.90;;;;;;10335200;28;20113;-83
2022/12/04 08:10:12;;;;;;;76.30;32.53;;;2.10;99.90;;;;;;10340394;28;20099;-82
2022/12/04 08:15:13;;;;;;;62.23;28.57;;;2.20;99.90;;;;;;10362222;28;20052;-81
2022/12/04 08:20:14;;;;;;;63.93;29.23;;;2.20;99.90;;;;;;10357359;28;20038;-82
2022/12/04 08:25:14;;;;;;;59.87;28.10;;;2.30;99.90;;;;;;10352527;28;20029;-81
2022/12/04 08:30:15;;;;;;;66.60;30.13;;;2.40;99.90;;;;;;10361068;28;20026;-81
2022/12/04 08:35:16;;;;;;;73.20;32.90;;;2.50;99.90;;;;;;10345928;28;20049;-82
2022/12/04 08:40:16;;;;;;;69.20;30.93;;;2.60;99.90;;;;;;10349340;28;20554;-81
2022/12/04 08:45:17;;;;;;;66.97;31.03;;;2.60;99.90;;;;;;10359729;28;20040;-82
2022/12/04 08:50:17;;;;;;;73.17;33.43;;;2.60;99.90;;;;;;10358492;28;20040;-82
2022/12/04 08:55:18;;;;;;;76.37;34.00;;;2.70;99.90;;;;;;10359834;28;20536;-82
2022/12/04 09:00:19;;;;;;;69.07;32.00;;;2.70;99.90;;;;;;10361069;28;20079;-82
2022/12/04 09:05:19;;;;;;;71.17;31.77;;;2.70;99.90;;;;;;10361204;28;20025;-82
2022/12/04 09:10:20;;;;;;;72.30;33.70;;;2.80;99.90;;;;;;10360383;28;20041;-81
2022/12/04 09:15:20;;;;;;;68.23;33.10;;;2.90;99.90;;;;;;10359121;28;20886;-82
2022/12/04 09:20:21;;;;;;;66.90;33.40;;;3.10;99.90;;;;;;10360360;28;20077;-81
2022/12/04 09:25:22;;;;;;;65.73;31.57;;;3.20;99.90;;;;;;10360591;28;20041;-82
2022/12/04 09:30:22;;;;;;;53.00;25.67;;;3.30;99.90;;;;;;10360967;28;20125;-81
2022/12/04 09:35:23;;;;;;;53.40;25.90;;;3.30;99.90;;;;;;10360287;28;20049;-81
2022/12/04 09:40:32;;;;;;;69.87;34.17;;;3.40;99.90;;;;;;10327687;28;20185;-82
2022/12/04 09:45:44;;;;;;;64.53;32.67;;;3.50;99.90;;;;;;10307778;28;20026;-80
2022/12/04 09:50:47;;;;;;;53.00;26.37;;;3.60;99.90;;;;;;10296771;28;20026;-80
2022/12/04 09:55:57;;;;;;;67.20;31.07;;;3.60;99.90;;;;;;10330073;28;20034;-83
2022/12/04 10:01:01;;;;;;;58.77;28.30;;;3.60;99.90;;;;;;10322086;28;20748;-83
2022/12/04 10:06:34;;;;;;;62.77;30.83;;;3.70;99.90;;;;;;10315573;28;20030;-84
2022/12/04 10:11:55;;;;;;;73.27;32.30;;;3.70;99.90;;;;;;10341807;28;20058;-82
2022/12/04 10:17:10;;;;;;;57.23;26.27;;;3.70;99.90;;;;;;10320059;28;20039;-82
2022/12/04 10:22:23;;;;;;;94.53;47.67;;;3.80;99.90;;;;;;10329511;28;20053;-82
2022/12/04 10:27:51;;;;;;;276.00;181.57;;;3.80;99.90;;;;;;10347104;28;20685;-83
2022/12/04 10:33:12;;;;;;;96.33;57.17;;;3.90;99.90;;;;;;10332692;28;20046;-82
2022/12/04 10:38:50;;;;;;;135.47;100.23;;;4.10;99.90;;;;;;10349767;28;20104;-82
2022/12/04 10:43:51;;;;;;;61.87;32.13;;;4.10;99.90;;;;;;10336618;28;20029;-83
2022/12/04 10:49:03;;;;;;;101.70;49.23;;;4.30;99.90;;;;;;10325073;28;20022;-83
2022/12/04 10:54:18;;;;;;;76.23;46.87;;;4.60;99.90;;;;;;10340298;28;20022;-84
2022/12/04 10:59:19;;;;;;;89.93;60.77;;;4.90;99.90;;;;;;10344050;28;20041;-83
2022/12/04 11:04:25;;;;;;;45.20;25.53;;;5.00;99.90;;;;;;10330372;28;20038;-83
2022/12/04 11:09:26;;;;;;;53.57;29.33;;;4.90;99.90;;;;;;10352419;28;20029;-82
2022/12/04 11:14:26;;;;;;;48.60;28.00;;;4.80;99.90;;;;;;10326534;28;20041;-82
2022/12/04 11:19:30;;;;;;;77.40;37.97;;;4.90;99.90;;;;;;10344134;28;20049;-83
2022/12/04 11:24:36;;;;;;;46.47;24.00;;;5.00;99.90;;;;;;10325100;28;20827;-82
2022/12/04 11:29:42;;;;;;;52.97;28.73;;;5.10;99.90;;;;;;10336980;28;20022;-82
2022/12/04 11:34:44;;;;;;;;;;;5.10;99.90;;;;;;10334012;28;20231;-82
2022/12/04 11:39:45;;;;;;;53.53;29.00;;;5.10;99.90;;;;;;10345531;28;19930;-82
2022/12/04 11:45:08;;;;;;;65.03;40.43;;;5.00;99.90;;;;;;10336995;28;20116;-82
2022/12/04 11:50:24;;;;;;;51.17;29.53;;;5.00;99.90;;;;;;10348706;28;20036;-82
2022/12/04 11:55:39;;;;;;;46.42;26.20;;;4.70;99.90;;;;;;10332826;28;20041;-83
2022/12/04 12:00:59;;;;;;;51.43;25.40;;;4.60;99.90;;;;;;10332729;28;20038;-84
2022/12/04 12:06:17;;;;;;;45.53;25.77;;;4.50;99.90;;;;;;10334554;28;20038;-83
2022/12/04 12:11:34;;;;;;;55.23;27.07;;;4.40;99.90;;;;;;10330895;28;20654;-82
2022/12/04 12:16:48;;;;;;;54.53;26.90;;;4.40;99.90;;;;;;10339734;28;20042;-80
2022/12/04 12:22:07;;;;;;;61.80;30.53;;;4.20;99.90;;;;;;10348237;28;20441;-84
2022/12/04 12:27:44;;;;;;;51.90;26.27;;;4.00;99.90;;;;;;10325372;28;20433;-83
2022/12/04 12:33:13;;;;;;;63.37;31.17;;;3.90;99.90;;;;;;10322295;28;20036;-83
2022/12/04 12:38:32;;;;;;;54.77;26.50;;;3.90;99.90;;;;;;10340845;28;20064;-84
2022/12/04 12:43:36;;;;;;;57.37;29.10;;;3.80;99.90;;;;;;10328506;28;20038;-81
2022/12/04 12:49:12;;;;;;;106.57;55.30;;;3.80;99.90;;;;;;10326428;28;20149;-82
2022/12/04 12:54:37;;;;;;;72.82;37.72;;;3.70;99.90;;;;;;10315314;28;20046;-83
2022/12/04 12:59:44;;;;;;;77.07;38.90;;;3.70;99.90;;;;;;10323434;28;20053;-83
2022/12/04 13:04:50;;;;;;;67.43;33.30;;;3.60;99.90;;;;;;10342531;28;20026;-83
2022/12/04 13:09:59;;;;;;;68.38;36.80;;;3.60;99.90;;;;;;10328965;28;20047;-83
2022/12/04 13:14:59;;;;;;;72.97;39.00;;;3.70;99.90;;;;;;10347835;28;20026;-83
2022/12/04 13:20:04;;;;;;;52.63;27.07;;;3.70;99.90;;;;;;10320617;28;20389;-83
2022/12/04 13:25:23;;;;;;;64.33;32.10;;;3.60;99.90;;;;;;10341567;28;20486;-82
2022/12/04 13:30:35;;;;;;;62.10;31.67;;;3.50;99.90;;;;;;10324186;28;20493;-82
2022/12/04 13:36:13;;;;;;;79.10;38.27;;;3.60;99.90;;;;;;10337073;28;20043;-82
2022/12/04 13:41:20;;;;;;;71.53;32.73;;;3.60;99.90;;;;;;10329064;28;20042;-83
2022/12/04 13:46:36;;;;;;;161.57;92.90;;;3.50;99.90;;;;;;10333985;28;20026;-81
2022/12/04 13:51:41;;;;;;;112.27;55.30;;;3.50;99.90;;;;;;10317647;28;20073;-83
2022/12/04 13:56:43;;;;;;;91.77;46.67;;;3.30;99.90;;;;;;10338352;28;20026;-82
2022/12/04 14:01:47;;;;;;;167.10;88.33;;;3.20;99.90;;;;;;10363651;28;20105;-84
2022/12/04 14:06:49;;;;;;;139.63;72.33;;;3.20;99.90;;;;;;10345609;28;20026;-83
2022/12/04 14:11:56;;;;;;;115.87;60.10;;;3.10;99.90;;;;;;10349755;28;20040;-82
2022/12/04 14:16:58;;;;;;;437.87;240.80;;;3.10;99.90;;;;;;10348899;28;20037;-83
2022/12/04 14:21:59;;;;;;;129.53;63.03;;;3.00;99.90;;;;;;10353118;28;20030;-82
2022/12/04 14:27:20;;;;;;;112.13;54.17;;;3.00;99.90;;;;;;10339601;28;20033;-82
2022/12/04 14:32:24;;;;;;;96.03;46.27;;;2.90;99.90;;;;;;10345140;28;20121;-82
2022/12/04 14:37:30;;;;;;;93.03;43.43;;;2.90;99.90;;;;;;10357779;28;20054;-82
2022/12/04 14:42:38;;;;;;;90.23;43.70;;;2.90;99.90;;;;;;10330708;28;20687;-83
2022/12/04 14:47:51;;;;;;;97.23;47.40;;;2.90;99.90;;;;;;10353152;28;20034;-82
2022/12/04 14:53:01;;;;;;;97.53;48.03;;;2.90;99.90;;;;;;10351009;28;20038;-83
2022/12/04 14:58:33;;;;;;;105.13;49.70;;;2.90;99.90;;;;;;10332388;28;20073;-82
2022/12/04 15:03:40;;;;;;;87.27;42.03;;;2.90;99.90;;;;;;10339390;28;20038;-84
2022/12/04 15:08:52;;;;;;;131.20;69.83;;;2.80;99.90;;;;;;10323128;28;20053;-81
2022/12/04 15:13:52;;;;;;;82.73;39.00;;;2.80;99.90;;;;;;10323712;28;20489;-83
2022/12/04 15:18:58;;;;;;;91.33;40.27;;;2.80;99.90;;;;;;10325309;28;20030;-83
2022/12/04 15:23:58;;;;;;;88.03;38.47;;;2.90;99.90;;;;;;10322875;28;20930;-83
2022/12/04 15:29:01;;;;;;;95.27;40.90;;;2.90;99.90;;;;;;10323982;28;20022;-83
2022/12/04 15:34:07;;;;;;;91.70;39.60;;;2.90;99.90;;;;;;10334716;28;20672;-83
2022/12/04 15:39:14;;;;;;;92.20;39.70;;;2.90;99.90;;;;;;10338650;28;20069;-83
2022/12/04 15:44:27;;;;;;;106.53;43.80;;;2.90;99.90;;;;;;10351929;28;20548;-82
2022/12/04 15:49:32;;;;;;;100.83;42.90;;;2.80;99.90;;;;;;10333938;28;20058;-82
2022/12/04 15:54:35;;;;;;;90.90;38.73;;;2.80;99.90;;;;;;10343012;28;20375;-82
2022/12/04 15:59:35;;;;;;;103.47;42.23;;;2.80;99.90;;;;;;10347815;28;20045;-82
2022/12/04 16:04:36;;;;;;;104.80;44.33;;;2.70;99.90;;;;;;10358351;28;20497;-83
2022/12/04 16:09:37;;;;;;;101.63;38.67;;;2.70;99.90;;;;;;10359099;28;20022;-82
2022/12/04 16:14:37;;;;;;;106.10;39.17;;;2.70;99.90;;;;;;10343819;28;20022;-82
2022/12/04 16:19:41;;;;;;;101.37;40.90;;;2.70;99.90;;;;;;10343912;28;20053;-82
2022/12/04 16:24:43;;;;;;;84.07;33.07;;;2.70;99.90;;;;;;10340403;28;20079;-82
2022/12/04 16:29:44;;;;;;;93.43;37.77;;;2.70;99.90;;;;;;10343151;28;20541;-83
2022/12/04 16:34:45;;;;;;;88.93;37.47;;;2.70;99.90;;;;;;10325560;28;20038;-83
2022/12/04 16:39:46;;;;;;;100.20;41.67;;;2.80;99.90;;;;;;10319958;28;20054;-82
2022/12/04 16:44:47;;;;;;;88.73;38.30;;;2.80;99.90;;;;;;10328752;28;20102;-83
2022/12/04 16:49:50;;;;;;;93.23;40.47;;;2.80;99.90;;;;;;10319722;28;20050;-82
2022/12/04 16:54:50;;;;;;;86.03;38.10;;;2.80;99.90;;;;;;10317161;28;20028;-83
2022/12/04 16:59:51;;;;;;;84.77;35.10;;;2.70;99.90;;;;;;10319264;28;20417;-83
2022/12/04 17:04:51;;;;;;;89.17;35.40;;;2.70;99.90;;;;;;10321042;28;20034;-82
2022/12/04 17:09:52;;;;;;;83.60;35.77;;;2.80;99.90;;;;;;10318732;28;20038;-82
2022/12/04 17:14:53;;;;;;;80.03;33.00;;;2.80;99.90;;;;;;10317482;28;20425;-83
2022/12/04 17:19:53;;;;;;;76.97;33.70;;;2.80;99.90;;;;;;10317768;28;21384;-82
2022/12/04 17:24:54;;;;;;;99.13;42.97;;;2.80;99.90;;;;;;10320021;28;20026;-82
2022/12/04 17:29:55;;;;;;;140.63;59.50;;;2.80;99.90;;;;;;10320838;28;20030;-82
2022/12/04 17:34:56;;;;;;;77.63;34.93;;;2.80;99.90;;;;;;10329326;28;20021;-82
2022/12/04 17:39:56;;;;;;;96.83;41.23;;;2.70;99.90;;;;;;10346437;28;20054;-82
2022/12/04 17:44:57;;;;;;;82.93;36.57;;;2.70;99.90;;;;;;10322360;28;20180;-82
2022/12/04 17:49:57;;;;;;;91.30;37.30;;;2.70;99.90;;;;;;10326719;28;20421;-82
2022/12/04 17:54:58;;;;;;;93.70;38.70;;;2.60;99.90;;;;;;10326611;28;20056;-81
2022/12/04 17:59:59;;;;;;;96.13;40.60;;;2.60;99.90;;;;;;10324647;28;20119;-82
2022/12/04 18:05:00;;;;;;;98.80;40.70;;;2.50;99.90;;;;;;10323077;28;20817;-81
2022/12/04 18:10:00;;;;;;;99.77;39.80;;;2.50;99.90;;;;;;10326781;28;20091;-81
2022/12/04 18:15:01;;;;;;;85.47;34.53;;;2.50;99.90;;;;;;10327883;28;20038;-82
2022/12/04 18:20:02;;;;;;;76.50;31.47;;;2.40;99.90;;;;;;10322562;28;20470;-81
2022/12/04 18:25:02;;;;;;;80.50;35.80;;;2.40;99.90;;;;;;10326249;28;20041;-82
2022/12/04 18:30:04;;;;;;;92.10;41.63;;;2.30;99.90;;;;;;10337000;28;20112;-81
2022/12/04 18:35:05;;;;;;;89.70;42.60;;;2.40;99.90;;;;;;10331824;28;20046;-81
2022/12/04 18:40:06;;;;;;;113.83;51.67;;;2.40;99.90;;;;;;10329275;28;20743;-82
2022/12/04 18:45:07;;;;;;;86.20;38.93;;;2.50;99.90;;;;;;10336416;28;20034;-81
2022/12/04 18:50:08;;;;;;;80.00;33.47;;;2.50;99.90;;;;;;10329403;28;20034;-81
2022/12/04 18:55:09;;;;;;;70.53;33.43;;;2.50;99.90;;;;;;10328076;28;20031;-82
2022/12/04 19:00:10;;;;;;;86.03;35.50;;;2.50;99.90;;;;;;10330413;28;20100;-82
2022/12/04 19:05:12;;;;;;;83.10;34.57;;;2.50;99.90;;;;;;10324102;28;20382;-82
2022/12/04 19:10:12;;;;;;;77.90;33.23;;;2.50;99.90;;;;;;10321348;28;20478;-81
2022/12/04 19:15:13;;;;;;;75.97;32.93;;;2.60;99.90;;;;;;10323851;28;20030;-81
2022/12/04 19:20:17;;;;;;;77.00;32.73;;;2.60;99.90;;;;;;10322112;28;20486;-81
2022/12/04 19:25:17;;;;;;;95.30;40.33;;;2.50;99.90;;;;;;10329149;28;20370;-81
2022/12/04 19:30:18;;;;;;;81.70;35.37;;;2.50;99.90;;;;;;10343527;28;20055;-83
2022/12/04 19:35:18;;;;;;;90.40;37.20;;;2.50;99.90;;;;;;10335970;28;20042;-83
2022/12/04 19:40:20;;;;;;;107.53;47.57;;;2.50;99.90;;;;;;10338032;28;20056;-82
2022/12/04 19:45:20;;;;;;;111.67;53.67;;;2.50;99.90;;;;;;10336395;28;20097;-83
2022/12/04 19:50:21;;;;;;;113.53;52.50;;;2.50;99.90;;;;;;10329971;28;20030;-83
2022/12/04 19:55:21;;;;;;;114.30;50.40;;;2.50;99.90;;;;;;10321845;28;20042;-80
2022/12/04 20:00:22;;;;;;;145.47;60.57;;;2.50;99.90;;;;;;10328098;28;20137;-84
2022/12/04 20:05:23;;;;;;;89.83;40.93;;;2.50;99.90;;;;;;10320024;28;20046;-83
2022/12/04 20:10:23;;;;;;;69.97;32.63;;;2.50;99.90;;;;;;10321831;28;20034;-81
2022/12/04 20:15:24;;;;;;;77.97;34.37;;;2.50;99.90;;;;;;10319931;28;20783;-83
2022/12/04 20:20:24;;;;;;;83.80;38.03;;;2.50;99.90;;;;;;10320563;28;20133;-81
2022/12/04 20:25:25;;;;;;;91.40;39.03;;;2.50;99.90;;;;;;10318583;28;20030;-84
2022/12/04 20:30:26;;;;;;;84.97;36.87;;;2.50;99.90;;;;;;10318458;28;20948;-82
2022/12/04 20:35:27;;;;;;;84.17;37.77;;;2.50;99.90;;;;;;10321090;28;20073;-81
2022/12/04 20:40:28;;;;;;;87.33;38.20;;;2.40;99.90;;;;;;10316997;28;20046;-82
2022/12/04 20:45:29;;;;;;;75.93;33.03;;;2.30;99.90;;;;;;10320963;28;20422;-83
2022/12/04 20:50:31;;;;;;;79.37;33.40;;;2.30;99.90;;;;;;10317983;28;20560;-82
2022/12/04 20:55:31;;;;;;;85.03;36.40;;;2.30;99.90;;;;;;10319508;28;20033;-83
2022/12/04 21:00:32;;;;;;;89.60;37.33;;;2.20;99.90;;;;;;10317421;28;20061;-82
2022/12/04 21:05:32;;;;;;;86.13;35.07;;;2.20;99.90;;;;;;10317653;28;20038;-83
2022/12/04 21:10:33;;;;;;;95.47;41.07;;;2.20;99.90;;;;;;10314811;28;20038;-82
2022/12/04 21:20:53;;;;;;;112.20;43.77;;;2.20;99.90;;;;;;10313512;28;20054;-82
2022/12/04 21:25:54;;;;;;;98.80;38.67;;;2.10;99.90;;;;;;10317112;28;20042;-82
2022/12/04 21:31:00;;;;;;;97.30;39.03;;;2.20;99.90;;;;;;10318355;28;20073;-82
2022/12/04 21:36:03;;;;;;;93.53;40.58;;;2.20;99.90;;;;;;10310009;28;20770;-82
2022/12/04 21:41:06;;;;;;;106.53;42.47;;;2.20;99.90;;;;;;10316710;28;20046;-83
2022/12/04 21:46:07;;;;;;;185.60;78.53;;;2.20;99.90;;;;;;10314368;28;20033;-82
2022/12/04 21:51:07;;;;;;;213.00;91.07;;;2.20;99.90;;;;;;10348594;23;20147;-82
2022/12/04 21:56:08;;;;;;;188.33;79.80;;;2.20;99.90;;;;;;10356290;28;20109;-83
2022/12/04 22:01:11;;;;;;;149.47;63.03;;;2.20;99.90;;;;;;10351832;28;22430;-83
2022/12/04 22:06:11;;;;;;;100.33;42.43;;;2.20;99.90;;;;;;10356006;28;20875;-82
2022/12/04 22:11:13;;;;;;;68.27;31.03;;;2.20;99.90;;;;;;10356229;28;20201;-84
2022/12/04 22:16:16;;;;;;;75.73;31.17;;;2.20;99.90;;;;;;10355513;28;20453;-84
2022/12/04 22:21:16;;;;;;;74.57;31.07;;;2.10;99.90;;;;;;10360047;28;20116;-83
2022/12/04 22:26:20;;;;;;;76.60;32.17;;;2.10;99.90;;;;;;10363217;28;20626;-82
2022/12/04 22:31:22;;;;;;;74.40;33.40;;;2.10;99.90;;;;;;10361790;28;20034;-82
2022/12/04 22:36:26;;;;;;;70.70;31.60;;;2.10;99.90;;;;;;10363364;28;20466;-82
2022/12/04 22:41:27;;;;;;;65.87;27.43;;;2.10;99.90;;;;;;10362790;28;20048;-82
2022/12/04 22:46:27;;;;;;;65.97;27.33;;;2.00;99.90;;;;;;10360303;28;20037;-85
2022/12/04 22:51:28;;;;;;;71.53;30.10;;;2.00;99.90;;;;;;10360953;28;20756;-83
2022/12/04 22:56:30;;;;;;;70.20;28.77;;;1.90;99.90;;;;;;10360830;28;20053;-81
2022/12/04 23:01:33;;;;;;;71.63;30.53;;;2.00;99.90;;;;;;10360926;28;20457;-83
2022/12/04 23:06:34;;;;;;;85.10;32.30;;;1.90;99.90;;;;;;10357956;28;20032;-82
2022/12/04 23:11:35;;;;;;;79.00;32.93;;;1.90;99.90;;;;;;10359894;28;20029;-82
2022/12/04 23:16:37;;;;;;;77.17;30.07;;;1.90;99.90;;;;;;10358791;28;20036;-85
2022/12/04 23:21:39;;;;;;;88.60;35.57;;;1.90;99.90;;;;;;10357779;28;20072;-82
2022/12/04 23:26:43;;;;;;;83.60;31.07;;;1.90;99.90;;;;;;10358471;28;20038;-82
2022/12/04 23:31:43;;;;;;;83.90;32.60;;;1.90;99.90;;;;;;10358515;28;20085;-82
2022/12/04 23:36:44;;;;;;;90.50;34.27;;;1.90;99.90;;;;;;10360742;23;20145;-82
2022/12/04 23:41:44;;;;;;;105.50;40.40;;;1.80;99.90;;;;;;10320802;28;20061;-83
2022/12/04 23:46:45;;;;;;;85.30;32.23;;;1.80;99.90;;;;;;10318910;28;20394;-83
2022/12/04 23:51:45;;;;;;;86.23;31.10;;;1.70;99.90;;;;;;10319117;28;20041;-82
2022/12/04 23:56:46;;;;;;;83.53;30.97;;;1.60;99.90;;;;;;10320493;28;20038;-82
